sensor_id;sensor_type;location;lat;lon;timestamp;P1;durP1;ratioP1;P2;durP2;ratioP2
11344;SDS011;5727;42.600;23.028;2024-03-23T00:55:58;18.63;;;11.40;;
11344;SDS011;5727;42.600;23.028;2024-03-23T00:58:24;19.47;;;10.53;;
11344;SDS011;5727;42.600;23.028;2024-03-23T01:00:51;15.63;;;10.03;;
11344;SDS011;5727;42.600;23.028;2024-03-23T01:03:17;19.97;;;11.27;;
11344;SDS011;5727;42.600;23.028;2024-03-23T01:05:45;21.07;;;11.00;;
11344;SDS011;5727;42.600;23.028;2024-03-23T01:08:11;14.67;;;9.70;;
11344;SDS011;5727;42.600;23.028;2024-03-23T01:10:38;18.40;;;10.47;;
11344;SDS011;5727;42.600;23.028;2024-03-23T01:13:04;18.50;;;10.20;;
11344;SDS011;5727;42.600;23.028;2024-03-23T01:15:31;18.07;;;11.53;;
11344;SDS011;5727;42.600;23.028;2024-03-23T01:17:57;20.87;;;9.80;;
11344;SDS011;5727;42.600;23.028;2024-03-23T01:20:24;20.77;;;11.53;;
11344;SDS011;5727;42.600;23.028;2024-03-23T01:22:51;18.07;;;10.67;;
11344;SDS011;5727;42.600;23.028;2024-03-23T01:25:18;23.50;;;12.37;;
11344;SDS011;5727;42.600;23.028;2024-03-23T01:27:44;19.10;;;11.23;;
11344;SDS011;5727;42.600;23.028;2024-03-23T01:30:11;20.33;;;11.40;;
11344;SDS011;5727;42.600;23.028;2024-03-23T01:32:39;20.13;;;11.80;;
11344;SDS011;5727;42.600;23.028;2024-03-23T01:35:06;22.40;;;11.37;;
11344;SDS011;5727;42.600;23.028;2024-03-23T01:37:32;26.17;;;12.27;;
11344;SDS011;5727;42.600;23.028;2024-03-23T01:40:01;18.40;;;11.23;;
11344;SDS011;5727;42.600;23.028;2024-03-23T01:42:29;25.27;;;12.67;;
11344;SDS011;5727;42.600;23.028;2024-03-23T01:44:56;24.30;;;12.93;;
11344;SDS011;5727;42.600;23.028;2024-03-23T01:47:22;23.53;;;12.03;;
11344;SDS011;5727;42.600;23.028;2024-03-23T01:49:49;20.77;;;11.97;;
11344;SDS011;5727;42.600;23.028;2024-03-23T01:52:15;24.10;;;12.83;;
11344;SDS011;5727;42.600;23.028;2024-03-23T01:54:42;26.03;;;13.40;;
11344;SDS011;5727;42.600;23.028;2024-03-23T01:57:10;19.13;;;12.37;;
11344;SDS011;5727;42.600;23.028;2024-03-23T01:59:39;22.73;;;12.53;;
11344;SDS011;5727;42.600;23.028;2024-03-23T02:02:05;26.00;;;12.80;;
11344;SDS011;5727;42.600;23.028;2024-03-23T02:04:32;29.67;;;13.73;;
11344;SDS011;5727;42.600;23.028;2024-03-23T02:06:58;21.13;;;14.13;;
11344;SDS011;5727;42.600;23.028;2024-03-23T02:09:24;37.13;;;14.53;;
11344;SDS011;5727;42.600;23.028;2024-03-23T02:11:50;21.33;;;12.90;;
11344;SDS011;5727;42.600;23.028;2024-03-23T02:14:19;30.27;;;14.43;;
11344;SDS011;5727;42.600;23.028;2024-03-23T02:16:44;30.40;;;13.47;;
11344;SDS011;5727;42.600;23.028;2024-03-23T02:19:12;28.37;;;13.17;;
11344;SDS011;5727;42.600;23.028;2024-03-23T02:21:38;27.43;;;14.33;;
11344;SDS011;5727;42.600;23.028;2024-03-23T02:24:06;30.17;;;13.53;;
11344;SDS011;5727;42.600;23.028;2024-03-23T02:26:32;26.93;;;13.83;;
11344;SDS011;5727;42.600;23.028;2024-03-23T02:28:59;22.87;;;14.23;;
11344;SDS011;5727;42.600;23.028;2024-03-23T02:31:25;33.60;;;14.63;;
11344;SDS011;5727;42.600;23.028;2024-03-23T02:33:53;27.53;;;13.93;;
11344;SDS011;5727;42.600;23.028;2024-03-23T02:36:18;23.33;;;13.97;;
11344;SDS011;5727;42.600;23.028;2024-03-23T02:38:46;31.27;;;13.73;;
11344;SDS011;5727;42.600;23.028;2024-03-23T02:41:13;32.33;;;15.43;;
11344;SDS011;5727;42.600;23.028;2024-03-23T02:43:48;20.90;;;14.13;;
11344;SDS011;5727;42.600;23.028;2024-03-23T02:46:14;24.50;;;14.97;;
11344;SDS011;5727;42.600;23.028;2024-03-23T02:48:41;25.27;;;13.83;;
11344;SDS011;5727;42.600;23.028;2024-03-23T02:51:07;21.53;;;14.43;;
11344;SDS011;5727;42.600;23.028;2024-03-23T02:53:34;22.00;;;13.17;;
11344;SDS011;5727;42.600;23.028;2024-03-23T02:56:00;29.07;;;15.33;;
11344;SDS011;5727;42.600;23.028;2024-03-23T02:58:28;25.23;;;14.73;;
11344;SDS011;5727;42.600;23.028;2024-03-23T03:00:54;22.07;;;15.30;;
11344;SDS011;5727;42.600;23.028;2024-03-23T03:03:21;22.13;;;13.00;;
11344;SDS011;5727;42.600;23.028;2024-03-23T03:05:47;22.23;;;12.70;;
11344;SDS011;5727;42.600;23.028;2024-03-23T03:08:14;24.87;;;13.40;;
11344;SDS011;5727;42.600;23.028;2024-03-23T03:10:40;22.13;;;10.97;;
11344;SDS011;5727;42.600;23.028;2024-03-23T03:13:07;16.00;;;12.23;;
11344;SDS011;5727;42.600;23.028;2024-03-23T03:15:34;19.83;;;10.33;;
11344;SDS011;5727;42.600;23.028;2024-03-23T03:18:01;22.53;;;12.00;;
11344;SDS011;5727;42.600;23.028;2024-03-23T03:20:27;22.47;;;11.53;;
11344;SDS011;5727;42.600;23.028;2024-03-23T03:22:54;26.27;;;11.87;;
11344;SDS011;5727;42.600;23.028;2024-03-23T03:25:20;18.17;;;10.90;;
11344;SDS011;5727;42.600;23.028;2024-03-23T03:27:46;19.23;;;11.27;;
11344;SDS011;5727;42.600;23.028;2024-03-23T03:30:13;22.97;;;10.87;;
11344;SDS011;5727;42.600;23.028;2024-03-23T03:32:41;20.57;;;11.73;;
11344;SDS011;5727;42.600;23.028;2024-03-23T03:35:07;23.20;;;12.70;;
11344;SDS011;5727;42.600;23.028;2024-03-23T03:37:34;23.60;;;12.17;;
11344;SDS011;5727;42.600;23.028;2024-03-23T03:40:00;24.43;;;12.50;;
11344;SDS011;5727;42.600;23.028;2024-03-23T03:42:27;21.70;;;12.27;;
11344;SDS011;5727;42.600;23.028;2024-03-23T03:44:53;27.43;;;12.53;;
11344;SDS011;5727;42.600;23.028;2024-03-23T03:47:20;21.70;;;12.13;;
11344;SDS011;5727;42.600;23.028;2024-03-23T03:49:47;26.27;;;12.40;;
11344;SDS011;5727;42.600;23.028;2024-03-23T03:52:14;21.97;;;12.53;;
11344;SDS011;5727;42.600;23.028;2024-03-23T03:54:40;28.77;;;12.53;;
11344;SDS011;5727;42.600;23.028;2024-03-23T03:57:06;18.73;;;11.60;;
11344;SDS011;5727;42.600;23.028;2024-03-23T03:59:32;23.57;;;12.07;;
11344;SDS011;5727;42.600;23.028;2024-03-23T04:01:59;25.27;;;11.77;;
11344;SDS011;5727;42.600;23.028;2024-03-23T04:04:25;24.93;;;12.37;;
11344;SDS011;5727;42.600;23.028;2024-03-23T04:06:59;28.40;;;12.57;;
11344;SDS011;5727;42.600;23.028;2024-03-23T04:09:25;17.77;;;12.60;;
11344;SDS011;5727;42.600;23.028;2024-03-23T04:11:52;20.63;;;13.37;;
11344;SDS011;5727;42.600;23.028;2024-03-23T04:14:17;29.07;;;15.33;;
11344;SDS011;5727;42.600;23.028;2024-03-23T04:16:44;25.40;;;13.93;;
11344;SDS011;5727;42.600;23.028;2024-03-23T04:19:10;20.30;;;12.87;;
11344;SDS011;5727;42.600;23.028;2024-03-23T04:21:37;19.23;;;11.60;;
11344;SDS011;5727;42.600;23.028;2024-03-23T04:24:05;25.33;;;12.53;;
11344;SDS011;5727;42.600;23.028;2024-03-23T04:26:40;20.20;;;12.97;;
11344;SDS011;5727;42.600;23.028;2024-03-23T04:29:06;23.00;;;12.47;;
11344;SDS011;5727;42.600;23.028;2024-03-23T04:31:33;22.07;;;12.60;;
11344;SDS011;5727;42.600;23.028;2024-03-23T04:34:00;21.27;;;12.77;;
11344;SDS011;5727;42.600;23.028;2024-03-23T04:36:27;24.67;;;11.67;;
11344;SDS011;5727;42.600;23.028;2024-03-23T04:38:53;21.97;;;13.03;;
11344;SDS011;5727;42.600;23.028;2024-03-23T04:41:21;21.57;;;12.77;;
11344;SDS011;5727;42.600;23.028;2024-03-23T04:43:48;22.27;;;13.43;;
11344;SDS011;5727;42.600;23.028;2024-03-23T04:46:15;23.87;;;12.10;;
11344;SDS011;5727;42.600;23.028;2024-03-23T04:48:42;17.93;;;10.87;;
11344;SDS011;5727;42.600;23.028;2024-03-23T04:51:09;24.20;;;12.70;;
11344;SDS011;5727;42.600;23.028;2024-03-23T04:53:37;27.07;;;12.77;;
11344;SDS011;5727;42.600;23.028;2024-03-23T04:56:04;24.67;;;12.93;;
11344;SDS011;5727;42.600;23.028;2024-03-23T04:58:32;24.20;;;13.10;;
11344;SDS011;5727;42.600;23.028;2024-03-23T05:00:58;24.73;;;13.27;;
11344;SDS011;5727;42.600;23.028;2024-03-23T05:03:24;24.43;;;12.70;;
11344;SDS011;5727;42.600;23.028;2024-03-23T05:05:51;24.87;;;12.87;;
11344;SDS011;5727;42.600;23.028;2024-03-23T05:08:18;17.97;;;11.90;;
11344;SDS011;5727;42.600;23.028;2024-03-23T05:10:45;26.57;;;13.50;;
11344;SDS011;5727;42.600;23.028;2024-03-23T05:13:11;22.27;;;11.93;;
11344;SDS011;5727;42.600;23.028;2024-03-23T05:15:39;21.13;;;12.03;;
11344;SDS011;5727;42.600;23.028;2024-03-23T05:18:06;22.90;;;11.63;;
11344;SDS011;5727;42.600;23.028;2024-03-23T05:20:33;15.40;;;11.97;;
11344;SDS011;5727;42.600;23.028;2024-03-23T05:22:59;17.37;;;11.70;;
11344;SDS011;5727;42.600;23.028;2024-03-23T05:25:25;18.23;;;10.97;;
11344;SDS011;5727;42.600;23.028;2024-03-23T05:27:51;20.80;;;11.97;;
11344;SDS011;5727;42.600;23.028;2024-03-23T05:30:18;16.50;;;11.10;;
11344;SDS011;5727;42.600;23.028;2024-03-23T05:32:46;15.60;;;10.93;;
11344;SDS011;5727;42.600;23.028;2024-03-23T05:35:13;21.23;;;10.47;;
11344;SDS011;5727;42.600;23.028;2024-03-23T05:37:39;19.47;;;11.40;;
11344;SDS011;5727;42.600;23.028;2024-03-23T05:40:06;16.47;;;10.70;;
11344;SDS011;5727;42.600;23.028;2024-03-23T05:42:33;13.90;;;10.37;;
11344;SDS011;5727;42.600;23.028;2024-03-23T05:45:00;19.37;;;11.07;;
11344;SDS011;5727;42.600;23.028;2024-03-23T05:47:26;20.40;;;11.33;;
11344;SDS011;5727;42.600;23.028;2024-03-23T05:49:55;17.90;;;10.33;;
11344;SDS011;5727;42.600;23.028;2024-03-23T05:52:21;17.27;;;10.17;;
11344;SDS011;5727;42.600;23.028;2024-03-23T05:54:50;16.23;;;9.90;;
11344;SDS011;5727;42.600;23.028;2024-03-23T05:57:16;13.47;;;9.80;;
11344;SDS011;5727;42.600;23.028;2024-03-23T05:59:44;11.27;;;9.17;;
11344;SDS011;5727;42.600;23.028;2024-03-23T06:02:10;14.60;;;9.50;;
11344;SDS011;5727;42.600;23.028;2024-03-23T06:04:36;17.00;;;10.80;;
11344;SDS011;5727;42.600;23.028;2024-03-23T06:07:05;15.57;;;9.83;;
11344;SDS011;5727;42.600;23.028;2024-03-23T06:09:38;15.57;;;10.27;;
11344;SDS011;5727;42.600;23.028;2024-03-23T06:12:04;12.50;;;10.33;;
11344;SDS011;5727;42.600;23.028;2024-03-23T06:14:32;19.07;;;10.53;;
11344;SDS011;5727;42.600;23.028;2024-03-23T06:16:58;14.53;;;10.57;;
11344;SDS011;5727;42.600;23.028;2024-03-23T06:19:25;18.87;;;11.23;;
11344;SDS011;5727;42.600;23.028;2024-03-23T06:21:52;20.97;;;11.73;;
11344;SDS011;5727;42.600;23.028;2024-03-23T06:24:21;17.50;;;10.73;;
11344;SDS011;5727;42.600;23.028;2024-03-23T06:26:47;16.40;;;9.97;;
11344;SDS011;5727;42.600;23.028;2024-03-23T06:29:15;14.40;;;9.90;;
11344;SDS011;5727;42.600;23.028;2024-03-23T06:31:41;16.30;;;9.97;;
11344;SDS011;5727;42.600;23.028;2024-03-23T06:34:08;22.13;;;10.70;;
11344;SDS011;5727;42.600;23.028;2024-03-23T06:36:34;17.97;;;11.77;;
11344;SDS011;5727;42.600;23.028;2024-03-23T06:39:03;17.43;;;11.83;;
11344;SDS011;5727;42.600;23.028;2024-03-23T06:41:31;18.43;;;10.93;;
11344;SDS011;5727;42.600;23.028;2024-03-23T06:43:58;14.30;;;10.90;;
11344;SDS011;5727;42.600;23.028;2024-03-23T06:46:24;20.27;;;11.33;;
11344;SDS011;5727;42.600;23.028;2024-03-23T06:48:51;20.60;;;10.90;;
11344;SDS011;5727;42.600;23.028;2024-03-23T06:51:17;17.60;;;10.67;;
11344;SDS011;5727;42.600;23.028;2024-03-23T06:53:44;16.70;;;10.80;;
11344;SDS011;5727;42.600;23.028;2024-03-23T06:56:09;15.40;;;10.10;;
11344;SDS011;5727;42.600;23.028;2024-03-23T06:58:38;16.70;;;10.90;;
11344;SDS011;5727;42.600;23.028;2024-03-23T07:01:04;18.00;;;10.77;;
11344;SDS011;5727;42.600;23.028;2024-03-23T07:03:31;14.50;;;11.07;;
11344;SDS011;5727;42.600;23.028;2024-03-23T07:05:57;15.40;;;10.60;;
11344;SDS011;5727;42.600;23.028;2024-03-23T07:08:24;15.57;;;10.27;;
11344;SDS011;5727;42.600;23.028;2024-03-23T07:10:50;17.53;;;11.53;;
11344;SDS011;5727;42.600;23.028;2024-03-23T07:13:17;16.63;;;11.07;;
11344;SDS011;5727;42.600;23.028;2024-03-23T07:15:49;21.00;;;10.30;;
11344;SDS011;5727;42.600;23.028;2024-03-23T07:18:18;15.23;;;10.67;;
11344;SDS011;5727;42.600;23.028;2024-03-23T07:20:51;17.33;;;10.73;;
11344;SDS011;5727;42.600;23.028;2024-03-23T07:23:18;18.37;;;10.97;;
11344;SDS011;5727;42.600;23.028;2024-03-23T07:25:44;13.23;;;10.53;;
11344;SDS011;5727;42.600;23.028;2024-03-23T07:28:11;18.97;;;11.17;;
11344;SDS011;5727;42.600;23.028;2024-03-23T07:30:37;15.23;;;10.63;;
11344;SDS011;5727;42.600;23.028;2024-03-23T07:33:06;16.37;;;9.50;;
11344;SDS011;5727;42.600;23.028;2024-03-23T07:35:32;15.00;;;10.27;;
11344;SDS011;5727;42.600;23.028;2024-03-23T07:37:58;12.83;;;9.60;;
11344;SDS011;5727;42.600;23.028;2024-03-23T07:40:30;14.83;;;10.80;;
11344;SDS011;5727;42.600;23.028;2024-03-23T07:42:57;14.80;;;10.97;;
11344;SDS011;5727;42.600;23.028;2024-03-23T07:45:23;13.07;;;9.57;;
11344;SDS011;5727;42.600;23.028;2024-03-23T07:47:50;17.63;;;10.33;;
11344;SDS011;5727;42.600;23.028;2024-03-23T07:50:17;14.63;;;9.97;;
11344;SDS011;5727;42.600;23.028;2024-03-23T07:52:44;17.23;;;10.13;;
11344;SDS011;5727;42.600;23.028;2024-03-23T07:55:10;14.27;;;9.63;;
11344;SDS011;5727;42.600;23.028;2024-03-23T07:57:37;15.90;;;9.63;;
11344;SDS011;5727;42.600;23.028;2024-03-23T08:00:03;12.87;;;9.43;;
11344;SDS011;5727;42.600;23.028;2024-03-23T08:02:31;15.80;;;9.97;;
11344;SDS011;5727;42.600;23.028;2024-03-23T08:04:57;11.73;;;8.50;;
11344;SDS011;5727;42.600;23.028;2024-03-23T08:07:25;16.70;;;8.40;;
11344;SDS011;5727;42.600;23.028;2024-03-23T08:09:51;12.23;;;8.30;;
11344;SDS011;5727;42.600;23.028;2024-03-23T08:12:18;12.77;;;7.60;;
11344;SDS011;5727;42.600;23.028;2024-03-23T08:14:45;10.73;;;7.63;;
11344;SDS011;5727;42.600;23.028;2024-03-23T08:17:12;10.90;;;6.97;;
11344;SDS011;5727;42.600;23.028;2024-03-23T08:19:37;11.67;;;8.00;;
11344;SDS011;5727;42.600;23.028;2024-03-23T08:22:07;8.77;;;6.90;;
11344;SDS011;5727;42.600;23.028;2024-03-23T08:24:35;9.07;;;6.70;;
11344;SDS011;5727;42.600;23.028;2024-03-23T08:27:02;12.00;;;6.73;;
11344;SDS011;5727;42.600;23.028;2024-03-23T08:29:30;9.13;;;6.50;;
11344;SDS011;5727;42.600;23.028;2024-03-23T08:31:57;11.80;;;6.97;;
11344;SDS011;5727;42.600;23.028;2024-03-23T08:34:22;12.70;;;6.57;;
11344;SDS011;5727;42.600;23.028;2024-03-23T08:36:49;8.93;;;6.43;;
11344;SDS011;5727;42.600;23.028;2024-03-23T08:39:16;9.03;;;6.27;;
11344;SDS011;5727;42.600;23.028;2024-03-23T08:41:44;11.27;;;6.97;;
11344;SDS011;5727;42.600;23.028;2024-03-23T08:44:11;11.07;;;6.40;;
11344;SDS011;5727;42.600;23.028;2024-03-23T08:46:38;8.87;;;5.93;;
11344;SDS011;5727;42.600;23.028;2024-03-23T08:49:04;8.10;;;5.83;;
11344;SDS011;5727;42.600;23.028;2024-03-23T08:51:31;7.37;;;5.13;;
11344;SDS011;5727;42.600;23.028;2024-03-23T08:53:57;7.37;;;5.40;;
11344;SDS011;5727;42.600;23.028;2024-03-23T08:56:23;9.27;;;5.50;;
11344;SDS011;5727;42.600;23.028;2024-03-23T08:58:51;7.47;;;5.40;;
11344;SDS011;5727;42.600;23.028;2024-03-23T09:01:18;5.87;;;4.97;;
11344;SDS011;5727;42.600;23.028;2024-03-23T09:03:44;8.80;;;5.17;;
11344;SDS011;5727;42.600;23.028;2024-03-23T09:06:11;5.40;;;4.90;;
11344;SDS011;5727;42.600;23.028;2024-03-23T09:08:38;6.73;;;4.87;;
11344;SDS011;5727;42.600;23.028;2024-03-23T09:11:06;5.23;;;4.80;;
11344;SDS011;5727;42.600;23.028;2024-03-23T09:13:33;6.97;;;5.10;;
11344;SDS011;5727;42.600;23.028;2024-03-23T09:16:02;6.80;;;4.93;;
11344;SDS011;5727;42.600;23.028;2024-03-23T09:18:31;6.03;;;4.77;;
11344;SDS011;5727;42.600;23.028;2024-03-23T09:20:58;5.37;;;3.90;;
11344;SDS011;5727;42.600;23.028;2024-03-23T09:23:24;4.97;;;3.97;;
11344;SDS011;5727;42.600;23.028;2024-03-23T09:25:51;8.20;;;4.50;;
11344;SDS011;5727;42.600;23.028;2024-03-23T09:28:18;4.40;;;4.00;;
11344;SDS011;5727;42.600;23.028;2024-03-23T09:30:44;6.43;;;4.10;;
11344;SDS011;5727;42.600;23.028;2024-03-23T09:33:13;6.03;;;4.27;;
11344;SDS011;5727;42.600;23.028;2024-03-23T09:35:39;6.17;;;4.10;;
11344;SDS011;5727;42.600;23.028;2024-03-23T09:38:06;5.23;;;4.50;;
11344;SDS011;5727;42.600;23.028;2024-03-23T09:40:34;5.33;;;3.90;;
11344;SDS011;5727;42.600;23.028;2024-03-23T09:43:01;4.27;;;3.80;;
11344;SDS011;5727;42.600;23.028;2024-03-23T09:45:28;7.60;;;5.10;;
11344;SDS011;5727;42.600;23.028;2024-03-23T09:47:55;6.73;;;4.33;;
11344;SDS011;5727;42.600;23.028;2024-03-23T09:50:23;5.53;;;5.03;;
11344;SDS011;5727;42.600;23.028;2024-03-23T09:52:50;8.63;;;4.07;;
11344;SDS011;5727;42.600;23.028;2024-03-23T09:55:16;4.40;;;4.00;;
11344;SDS011;5727;42.600;23.028;2024-03-23T09:57:43;4.57;;;3.87;;
11344;SDS011;5727;42.600;23.028;2024-03-23T10:00:09;4.27;;;3.60;;
11344;SDS011;5727;42.600;23.028;2024-03-23T10:02:38;5.27;;;2.70;;
11344;SDS011;5727;42.600;23.028;2024-03-23T10:05:04;3.53;;;3.10;;
11344;SDS011;5727;42.600;23.028;2024-03-23T10:07:48;3.47;;;3.17;;
11344;SDS011;5727;42.600;23.028;2024-03-23T10:10:16;3.37;;;3.07;;
11344;SDS011;5727;42.600;23.028;2024-03-23T10:12:43;6.07;;;2.93;;
11344;SDS011;5727;42.600;23.028;2024-03-23T10:15:15;7.03;;;3.07;;
11344;SDS011;5727;42.600;23.028;2024-03-23T10:17:44;2.87;;;2.57;;
11344;SDS011;5727;42.600;23.028;2024-03-23T10:20:12;2.57;;;2.37;;
11344;SDS011;5727;42.600;23.028;2024-03-23T10:22:38;4.47;;;3.07;;
11344;SDS011;5727;42.600;23.028;2024-03-23T10:25:10;5.07;;;2.90;;
11344;SDS011;5727;42.600;23.028;2024-03-23T10:27:36;2.70;;;2.50;;
11344;SDS011;5727;42.600;23.028;2024-03-23T10:30:07;3.97;;;2.97;;
11344;SDS011;5727;42.600;23.028;2024-03-23T10:32:34;2.90;;;2.60;;
11344;SDS011;5727;42.600;23.028;2024-03-23T10:35:13;3.20;;;2.90;;
11344;SDS011;5727;42.600;23.028;2024-03-23T10:37:40;5.30;;;2.80;;
11344;SDS011;5727;42.600;23.028;2024-03-23T10:40:10;3.47;;;2.83;;
11344;SDS011;5727;42.600;23.028;2024-03-23T10:42:38;3.53;;;3.07;;
11344;SDS011;5727;42.600;23.028;2024-03-23T10:45:06;3.00;;;2.57;;
11344;SDS011;5727;42.600;23.028;2024-03-23T10:47:34;3.80;;;2.30;;
11344;SDS011;5727;42.600;23.028;2024-03-23T10:50:02;3.50;;;2.80;;
11344;SDS011;5727;42.600;23.028;2024-03-23T10:52:30;3.20;;;2.53;;
11344;SDS011;5727;42.600;23.028;2024-03-23T10:54:57;2.67;;;2.47;;
11344;SDS011;5727;42.600;23.028;2024-03-23T10:57:29;3.47;;;2.30;;
11344;SDS011;5727;42.600;23.028;2024-03-23T11:00:01;2.73;;;2.23;;
11344;SDS011;5727;42.600;23.028;2024-03-23T11:02:28;3.93;;;2.43;;
11344;SDS011;5727;42.600;23.028;2024-03-23T11:04:55;3.20;;;2.50;;
11344;SDS011;5727;42.600;23.028;2024-03-23T11:07:30;3.37;;;2.33;;
11344;SDS011;5727;42.600;23.028;2024-03-23T11:09:58;8.80;;;3.30;;
11344;SDS011;5727;42.600;23.028;2024-03-23T11:12:25;3.57;;;2.70;;
11344;SDS011;5727;42.600;23.028;2024-03-23T11:15:00;5.90;;;2.30;;
11344;SDS011;5727;42.600;23.028;2024-03-23T11:17:29;3.57;;;2.50;;
11344;SDS011;5727;42.600;23.028;2024-03-23T11:19:57;2.63;;;2.13;;
11344;SDS011;5727;42.600;23.028;2024-03-23T11:22:42;3.10;;;2.63;;
11344;SDS011;5727;42.600;23.028;2024-03-23T11:25:15;2.60;;;2.40;;
11344;SDS011;5727;42.600;23.028;2024-03-23T11:27:44;1.83;;;1.73;;
11344;SDS011;5727;42.600;23.028;2024-03-23T11:30:12;3.80;;;2.00;;
11344;SDS011;5727;42.600;23.028;2024-03-23T11:32:39;2.63;;;2.10;;
11344;SDS011;5727;42.600;23.028;2024-03-23T11:35:06;2.33;;;1.53;;
11344;SDS011;5727;42.600;23.028;2024-03-23T11:37:34;2.07;;;1.60;;
11344;SDS011;5727;42.600;23.028;2024-03-23T11:40:05;2.60;;;1.90;;
11344;SDS011;5727;42.600;23.028;2024-03-23T11:42:43;2.70;;;2.03;;
11344;SDS011;5727;42.600;23.028;2024-03-23T11:45:11;2.50;;;2.07;;
11344;SDS011;5727;42.600;23.028;2024-03-23T11:47:37;2.93;;;1.80;;
11344;SDS011;5727;42.600;23.028;2024-03-23T11:50:04;2.70;;;1.93;;
11344;SDS011;5727;42.600;23.028;2024-03-23T11:52:30;3.10;;;2.03;;
11344;SDS011;5727;42.600;23.028;2024-03-23T11:55:07;2.77;;;2.10;;
11344;SDS011;5727;42.600;23.028;2024-03-23T11:57:33;3.57;;;2.47;;
11344;SDS011;5727;42.600;23.028;2024-03-23T12:00:20;4.70;;;2.83;;
11344;SDS011;5727;42.600;23.028;2024-03-23T12:02:46;2.60;;;2.40;;
11344;SDS011;5727;42.600;23.028;2024-03-23T12:05:14;4.07;;;2.50;;
11344;SDS011;5727;42.600;23.028;2024-03-23T12:07:40;3.40;;;2.63;;
11344;SDS011;5727;42.600;23.028;2024-03-23T12:10:07;3.47;;;2.53;;
11344;SDS011;5727;42.600;23.028;2024-03-23T12:12:33;3.13;;;2.80;;
11344;SDS011;5727;42.600;23.028;2024-03-23T12:15:01;3.50;;;2.10;;
11344;SDS011;5727;42.600;23.028;2024-03-23T12:17:31;2.50;;;1.80;;
11344;SDS011;5727;42.600;23.028;2024-03-23T12:19:58;3.90;;;2.30;;
11344;SDS011;5727;42.600;23.028;2024-03-23T12:22:24;5.37;;;2.10;;
11344;SDS011;5727;42.600;23.028;2024-03-23T12:24:52;3.50;;;2.13;;
11344;SDS011;5727;42.600;23.028;2024-03-23T12:27:18;3.60;;;1.93;;
11344;SDS011;5727;42.600;23.028;2024-03-23T12:29:45;3.60;;;1.60;;
11344;SDS011;5727;42.600;23.028;2024-03-23T12:32:13;5.30;;;1.90;;
11344;SDS011;5727;42.600;23.028;2024-03-23T12:34:41;2.33;;;1.63;;
11344;SDS011;5727;42.600;23.028;2024-03-23T12:37:07;1.93;;;1.40;;
11344;SDS011;5727;42.600;23.028;2024-03-23T12:39:35;3.87;;;1.20;;
11344;SDS011;5727;42.600;23.028;2024-03-23T12:42:02;3.20;;;1.38;;
11344;SDS011;5727;42.600;23.028;2024-03-23T12:44:29;2.63;;;1.60;;
11344;SDS011;5727;42.600;23.028;2024-03-23T12:46:55;2.42;;;1.33;;
11344;SDS011;5727;42.600;23.028;2024-03-23T12:49:23;3.00;;;1.55;;
11344;SDS011;5727;42.600;23.028;2024-03-23T12:51:53;3.77;;;2.20;;
11344;SDS011;5727;42.600;23.028;2024-03-23T12:54:21;3.50;;;1.83;;
11344;SDS011;5727;42.600;23.028;2024-03-23T12:56:47;2.43;;;1.50;;
11344;SDS011;5727;42.600;23.028;2024-03-23T12:59:14;4.73;;;1.57;;
11344;SDS011;5727;42.600;23.028;2024-03-23T13:01:40;1.87;;;1.50;;
11344;SDS011;5727;42.600;23.028;2024-03-23T13:04:07;2.43;;;1.73;;
11344;SDS011;5727;42.600;23.028;2024-03-23T13:06:35;3.57;;;1.83;;
11344;SDS011;5727;42.600;23.028;2024-03-23T13:09:01;4.38;;;1.70;;
11344;SDS011;5727;42.600;23.028;2024-03-23T13:11:29;2.75;;;1.35;;
11344;SDS011;5727;42.600;23.028;2024-03-23T13:13:55;2.55;;;1.25;;
11344;SDS011;5727;42.600;23.028;2024-03-23T13:16:22;2.75;;;1.52;;
11344;SDS011;5727;42.600;23.028;2024-03-23T13:18:48;2.97;;;1.48;;
11344;SDS011;5727;42.600;23.028;2024-03-23T13:21:15;3.15;;;1.90;;
11344;SDS011;5727;42.600;23.028;2024-03-23T13:23:43;2.90;;;1.70;;
11344;SDS011;5727;42.600;23.028;2024-03-23T13:26:13;2.83;;;1.70;;
11344;SDS011;5727;42.600;23.028;2024-03-23T13:28:39;2.50;;;1.60;;
11344;SDS011;5727;42.600;23.028;2024-03-23T13:31:06;2.40;;;1.30;;
11344;SDS011;5727;42.600;23.028;2024-03-23T13:33:33;4.67;;;1.77;;
11344;SDS011;5727;42.600;23.028;2024-03-23T13:36:00;3.67;;;1.90;;
11344;SDS011;5727;42.600;23.028;2024-03-23T13:38:27;2.83;;;2.13;;
11344;SDS011;5727;42.600;23.028;2024-03-23T13:40:56;3.50;;;1.97;;
11344;SDS011;5727;42.600;23.028;2024-03-23T13:43:23;2.23;;;1.57;;
11344;SDS011;5727;42.600;23.028;2024-03-23T13:45:52;2.53;;;1.83;;
11344;SDS011;5727;42.600;23.028;2024-03-23T13:48:19;5.33;;;2.17;;
11344;SDS011;5727;42.600;23.028;2024-03-23T13:50:47;4.57;;;1.70;;
11344;SDS011;5727;42.600;23.028;2024-03-23T13:53:13;4.33;;;1.80;;
11344;SDS011;5727;42.600;23.028;2024-03-23T13:55:46;2.60;;;1.63;;
11344;SDS011;5727;42.600;23.028;2024-03-23T13:58:14;2.13;;;1.30;;
11344;SDS011;5727;42.600;23.028;2024-03-23T14:00:41;9.57;;;2.50;;
11344;SDS011;5727;42.600;23.028;2024-03-23T14:03:08;5.50;;;2.40;;
11344;SDS011;5727;42.600;23.028;2024-03-23T14:05:35;5.57;;;2.20;;
11344;SDS011;5727;42.600;23.028;2024-03-23T14:08:03;3.03;;;1.90;;
11344;SDS011;5727;42.600;23.028;2024-03-23T14:10:31;3.90;;;1.90;;
11344;SDS011;5727;42.600;23.028;2024-03-23T14:12:57;2.63;;;1.43;;
11344;SDS011;5727;42.600;23.028;2024-03-23T14:15:26;3.30;;;1.87;;
11344;SDS011;5727;42.600;23.028;2024-03-23T14:17:53;2.50;;;1.53;;
11344;SDS011;5727;42.600;23.028;2024-03-23T14:20:19;2.97;;;1.23;;
11344;SDS011;5727;42.600;23.028;2024-03-23T14:22:46;2.80;;;1.37;;
11344;SDS011;5727;42.600;23.028;2024-03-23T14:25:12;2.30;;;1.70;;
11344;SDS011;5727;42.600;23.028;2024-03-23T14:27:39;2.67;;;1.90;;
11344;SDS011;5727;42.600;23.028;2024-03-23T14:30:06;2.80;;;1.37;;
11344;SDS011;5727;42.600;23.028;2024-03-23T14:32:35;3.10;;;1.57;;
11344;SDS011;5727;42.600;23.028;2024-03-23T14:35:02;3.50;;;1.60;;
11344;SDS011;5727;42.600;23.028;2024-03-23T14:37:30;2.50;;;1.60;;
11344;SDS011;5727;42.600;23.028;2024-03-23T14:39:56;3.40;;;1.57;;
11344;SDS011;5727;42.600;23.028;2024-03-23T14:42:23;3.13;;;1.90;;
11344;SDS011;5727;42.600;23.028;2024-03-23T14:44:49;2.97;;;1.70;;
11344;SDS011;5727;42.600;23.028;2024-03-23T14:47:16;1.87;;;1.57;;
11344;SDS011;5727;42.600;23.028;2024-03-23T14:49:44;3.37;;;2.20;;
11344;SDS011;5727;42.600;23.028;2024-03-23T14:52:12;5.57;;;3.13;;
11344;SDS011;5727;42.600;23.028;2024-03-23T14:54:38;5.13;;;2.78;;
11344;SDS011;5727;42.600;23.028;2024-03-23T14:57:05;4.78;;;2.85;;
11344;SDS011;5727;42.600;23.028;2024-03-23T14:59:31;2.33;;;1.42;;
11344;SDS011;5727;42.600;23.028;2024-03-23T15:01:58;2.95;;;1.40;;
11344;SDS011;5727;42.600;23.028;2024-03-23T15:04:24;3.28;;;1.77;;
11344;SDS011;5727;42.600;23.028;2024-03-23T15:06:53;5.05;;;2.95;;
11344;SDS011;5727;42.600;23.028;2024-03-23T15:09:19;4.13;;;2.30;;
11344;SDS011;5727;42.600;23.028;2024-03-23T15:11:46;2.80;;;2.05;;
11344;SDS011;5727;42.600;23.028;2024-03-23T15:14:11;4.70;;;2.20;;
11344;SDS011;5727;42.600;23.028;2024-03-23T15:16:39;3.63;;;1.77;;
11344;SDS011;5727;42.600;23.028;2024-03-23T15:19:04;3.10;;;1.40;;
11344;SDS011;5727;42.600;23.028;2024-03-23T15:21:32;3.17;;;1.80;;
11344;SDS011;5727;42.600;23.028;2024-03-23T15:23:59;3.22;;;1.75;;
11344;SDS011;5727;42.600;23.028;2024-03-23T15:26:26;3.50;;;1.90;;
11344;SDS011;5727;42.600;23.028;2024-03-23T15:28:52;3.90;;;2.40;;
11344;SDS011;5727;42.600;23.028;2024-03-23T15:31:37;3.50;;;1.93;;